createdAt,value
2018-07-06T00:00:07.602Z,61.50
2018-07-06T00:01:07.461Z,61.50
2018-07-06T00:02:07.477Z,63.40
2018-07-06T00:03:07.484Z,62.30
2018-07-06T00:04:07.508Z,62.60
2018-07-06T00:05:07.573Z,64.70
2018-07-06T00:06:07.537Z,66.10
2018-07-06T00:07:07.549Z,65.60
2018-07-06T00:08:07.558Z,68.40
2018-07-06T00:09:07.583Z,66.60
2018-07-06T00:10:07.771Z,69.60
2018-07-06T00:11:07.619Z,68.20
2018-07-06T00:12:07.665Z,70.60
2018-07-06T00:13:07.632Z,69.50
2018-07-06T00:14:07.643Z,68.70
2018-07-06T00:15:07.747Z,67.70
2018-07-06T00:16:07.667Z,66.00
2018-07-06T00:17:07.667Z,70.20
2018-07-06T00:18:07.702Z,67.50
2018-07-06T00:19:07.707Z,68.40
2018-07-06T00:20:07.770Z,69.70
2018-07-06T00:21:07.727Z,68.40
2018-07-06T00:22:07.752Z,67.40
2018-07-06T00:23:07.755Z,68.40
2018-07-06T00:24:07.865Z,68.60
2018-07-06T00:25:07.789Z,68.50
2018-07-06T00:26:07.804Z,69.10
2018-07-06T00:27:07.824Z,68.40
2018-07-06T00:28:07.823Z,69.30
2018-07-06T00:29:07.893Z,69.00
2018-07-06T00:30:07.862Z,70.00
2018-07-06T00:31:07.974Z,68.60
2018-07-06T00:32:07.893Z,69.20
2018-07-06T00:33:07.905Z,67.40
2018-07-06T00:34:07.906Z,67.10
2018-07-06T00:35:07.970Z,68.20
2018-07-06T00:36:07.931Z,69.20
2018-07-06T00:37:08.101Z,67.70
2018-07-06T00:38:07.961Z,70.20
2018-07-06T00:39:07.985Z,69.80
2018-07-06T00:40:07.993Z,67.50
2018-07-06T00:41:08.007Z,70.50
2018-07-06T00:42:08.118Z,69.10
2018-07-06T00:43:08.054Z,68.40
2018-07-06T00:44:08.033Z,66.10
2018-07-06T00:45:08.064Z,66.40
2018-07-06T00:46:08.078Z,64.90
2018-07-06T00:47:08.248Z,66.00
2018-07-06T00:48:08.099Z,66.80
2018-07-06T00:49:08.154Z,65.60
2018-07-06T00:50:08.120Z,66.30
2018-07-06T00:51:08.131Z,68.50
2018-07-06T00:52:08.366Z,66.20
2018-07-06T00:53:08.170Z,66.80
2018-07-06T00:54:08.187Z,67.80
2018-07-06T00:55:08.193Z,73.90
2018-07-06T00:56:08.197Z,79.10
2018-07-06T00:57:08.362Z,74.60
2018-07-06T00:58:08.243Z,72.90
2018-07-06T00:59:08.268Z,71.70
2018-07-06T01:00:08.269Z,69.90
2018-07-06T01:01:08.285Z,70.90
2018-07-06T01:02:08.485Z,71.20
2018-07-06T01:03:08.420Z,69.50
2018-07-06T01:04:08.317Z,71.20
2018-07-06T01:05:08.447Z,70.00
2018-07-06T01:06:08.331Z,70.90
2018-07-06T01:07:08.547Z,71.40
2018-07-06T01:08:08.362Z,73.60
2018-07-06T01:09:08.392Z,71.70
2018-07-06T01:10:08.440Z,69.10
2018-07-06T01:11:08.404Z,71.60
2018-07-06T01:12:08.532Z,66.90
2018-07-06T01:13:08.440Z,69.70
2018-07-06T01:14:08.457Z,70.60
2018-07-06T01:15:08.465Z,72.00
2018-07-06T01:16:08.473Z,72.10
2018-07-06T01:17:08.641Z,73.50
2018-07-06T01:18:08.487Z,72.70
2018-07-06T01:19:08.511Z,72.20
2018-07-06T01:20:08.530Z,73.80
2018-07-06T01:21:08.536Z,71.90
2018-07-06T01:22:08.744Z,72.90
2018-07-06T01:23:08.550Z,68.40
2018-07-06T01:24:08.592Z,70.80
2018-07-06T01:25:08.581Z,70.30
2018-07-06T01:26:08.664Z,69.70
2018-07-06T01:27:08.774Z,71.70
2018-07-06T01:28:08.653Z,72.60
2018-07-06T01:29:08.650Z,70.20
2018-07-06T01:30:08.661Z,69.80
2018-07-06T01:31:08.659Z,68.40
2018-07-06T01:32:08.683Z,72.30
2018-07-06T01:33:08.846Z,69.50
2018-07-06T01:34:08.696Z,76.60
2018-07-06T01:35:08.728Z,72.70
2018-07-06T01:36:08.740Z,76.70
2018-07-06T01:37:08.764Z,73.80
2018-07-06T01:38:08.913Z,75.40
2018-07-06T01:39:08.782Z,71.90
2018-07-06T01:40:08.778Z,72.40
2018-07-06T01:41:08.808Z,70.70
2018-07-06T01:42:08.819Z,72.60
2018-07-06T01:43:08.984Z,69.40
2018-07-06T01:44:08.841Z,71.20
2018-07-06T01:45:08.852Z,71.10
2018-07-06T01:46:08.911Z,69.90
2018-07-06T01:47:08.871Z,73.00
2018-07-06T01:48:08.900Z,75.10
2018-07-06T01:49:09.057Z,73.60
2018-07-06T01:50:08.929Z,75.30
2018-07-06T01:51:08.933Z,74.70
2018-07-06T01:52:08.962Z,75.20
2018-07-06T01:53:08.947Z,70.00
2018-07-06T01:54:09.126Z,71.00
2018-07-06T01:55:08.989Z,70.60
2018-07-06T01:56:09.001Z,77.20
2018-07-06T01:57:09.021Z,77.10
2018-07-06T01:58:09.012Z,77.10
2018-07-06T01:59:09.076Z,75.70
2018-07-06T02:00:09.048Z,73.30
2018-07-06T02:01:09.067Z,73.30
2018-07-06T02:02:09.085Z,72.70
2018-07-06T02:03:09.083Z,74.70
2018-07-06T02:04:09.191Z,74.70
2018-07-06T02:05:09.107Z,77.20
2018-07-06T02:06:09.126Z,77.50
2018-07-06T02:07:09.137Z,77.70
2018-07-06T02:08:09.160Z,79.60
2018-07-06T02:09:09.324Z,80.70
2018-07-06T02:10:09.183Z,81.20
2018-07-06T02:11:09.176Z,87.10
2018-07-06T02:12:09.196Z,84.20
2018-07-06T02:13:09.213Z,89.90
2018-07-06T02:14:09.321Z,90.40
2018-07-06T02:15:09.254Z,88.60
2018-07-06T02:16:09.255Z,85.60
2018-07-06T02:17:09.257Z,88.30
2018-07-06T02:18:09.272Z,90.30
2018-07-06T02:19:09.447Z,86.80
2018-07-06T02:20:09.316Z,87.60
2018-07-06T02:21:09.308Z,87.20
2018-07-06T02:22:09.317Z,85.40
2018-07-06T02:23:09.350Z,86.90
2018-07-06T02:24:09.505Z,86.00
2018-07-06T02:25:09.359Z,91.70
2018-07-06T02:26:09.398Z,93.30
2018-07-06T02:27:09.392Z,94.90
2018-07-06T02:28:09.408Z,98.60
2018-07-06T02:29:09.418Z,96.90
2018-07-06T02:30:09.653Z,97.40
2018-07-06T02:31:09.444Z,97.00
2018-07-06T02:32:09.462Z,98.10
2018-07-06T02:33:09.473Z,98.30
2018-07-06T02:34:09.488Z,94.00
2018-07-06T02:35:09.654Z,94.70
2018-07-06T02:36:09.507Z,99.50
2018-07-06T02:37:09.530Z,101.80
2018-07-06T02:38:09.536Z,104.10
2018-07-06T02:39:09.547Z,103.00
2018-07-06T02:40:09.568Z,104.80
2018-07-06T02:41:09.659Z,108.40
2018-07-06T02:42:09.592Z,107.70
2018-07-06T02:43:09.614Z,109.40
2018-07-06T02:44:09.659Z,106.00
2018-07-06T02:45:09.609Z,106.30
2018-07-06T02:46:09.749Z,95.30
2018-07-06T02:47:09.669Z,98.40
2018-07-06T02:48:09.680Z,95.50
2018-07-06T02:49:09.690Z,96.60
2018-07-06T02:50:09.682Z,98.70
2018-07-06T02:51:09.692Z,95.50
2018-07-06T02:52:09.809Z,98.90
2018-07-06T02:53:09.737Z,98.20
2018-07-06T02:54:09.726Z,101.00
2018-07-06T02:55:09.787Z,98.20
2018-07-06T02:56:09.781Z,96.40
2018-07-06T02:57:09.887Z,97.00
2018-07-06T02:58:09.799Z,92.40
2018-07-06T02:59:09.814Z,96.70
2018-07-06T03:00:09.818Z,95.90
2018-07-06T03:01:09.841Z,96.20
2018-07-06T03:02:09.842Z,98.30
2018-07-06T03:03:09.994Z,98.90
2018-07-06T03:04:09.874Z,101.50
2018-07-06T03:05:09.873Z,97.90
2018-07-06T03:06:09.885Z,97.50
2018-07-06T03:07:09.889Z,100.90
2018-07-06T03:08:10.030Z,99.90
2018-07-06T03:09:09.928Z,101.70
2018-07-06T03:10:09.948Z,101.10
2018-07-06T03:11:09.966Z,97.10
2018-07-06T03:12:09.965Z,102.10
2018-07-06T03:13:09.970Z,100.70
2018-07-06T03:14:10.076Z,103.60
2018-07-06T03:15:10.007Z,107.60
2018-07-06T03:16:10.027Z,107.80
2018-07-06T03:17:10.034Z,109.90
2018-07-06T03:18:10.141Z,101.50
2018-07-06T03:19:10.043Z,103.30
2018-07-06T03:20:10.077Z,104.80
2018-07-06T03:21:10.078Z,105.10
2018-07-06T03:22:10.082Z,102.10
2018-07-06T03:23:10.201Z,106.60
2018-07-06T03:24:10.146Z,103.60
2018-07-06T03:25:10.184Z,102.70
2018-07-06T03:26:10.134Z,104.80
2018-07-06T03:27:10.162Z,104.60
2018-07-06T03:28:10.313Z,106.60
2018-07-06T03:29:10.193Z,106.40
2018-07-06T03:30:10.226Z,110.80
2018-07-06T03:31:10.199Z,113.40
2018-07-06T03:32:10.222Z,112.50
2018-07-06T03:33:10.323Z,114.20
2018-07-06T03:34:10.237Z,113.90
2018-07-06T03:35:10.258Z,113.10
2018-07-06T03:36:10.257Z,119.40
2018-07-06T03:37:10.283Z,118.70
2018-07-06T03:38:10.409Z,114.40
2018-07-06T03:39:10.304Z,119.30
2018-07-06T03:40:10.330Z,113.90
2018-07-06T03:41:10.327Z,115.40
2018-07-06T03:42:10.342Z,115.00
2018-07-06T03:43:10.448Z,119.00
2018-07-06T03:44:10.384Z,119.30
2018-07-06T03:45:10.367Z,120.80
2018-07-06T03:46:10.397Z,119.50
2018-07-06T03:47:10.415Z,120.60
2018-07-06T03:48:10.556Z,117.00
2018-07-06T03:49:10.440Z,112.90
2018-07-06T03:50:10.439Z,113.60
2018-07-06T03:51:10.471Z,109.00
2018-07-06T03:52:10.485Z,121.30
2018-07-06T03:53:10.580Z,118.20
2018-07-06T03:54:10.509Z,118.60
2018-07-06T03:55:10.510Z,115.30
2018-07-06T03:56:10.519Z,117.30
2018-07-06T03:57:10.531Z,117.50
2018-07-06T03:58:10.532Z,121.00
2018-07-06T03:59:10.645Z,118.20
2018-07-06T04:00:10.582Z,119.80
2018-07-06T04:01:10.613Z,116.70
2018-07-06T04:02:10.580Z,116.70
2018-07-06T04:03:10.629Z,120.50
2018-07-06T04:04:10.734Z,120.30
2018-07-06T04:05:10.641Z,117.90
2018-07-06T04:06:10.636Z,115.90
2018-07-06T04:07:10.649Z,117.80
2018-07-06T04:08:10.657Z,108.40
2018-07-06T04:09:10.800Z,112.10
2018-07-06T04:10:10.682Z,114.00
2018-07-06T04:11:10.714Z,111.00
2018-07-06T04:12:10.725Z,108.90
2018-07-06T04:13:10.727Z,105.90
2018-07-06T04:14:10.753Z,109.80
2018-07-06T04:15:10.816Z,106.70
2018-07-06T04:16:10.774Z,103.30
2018-07-06T04:17:10.775Z,105.10
2018-07-06T04:18:10.787Z,106.40
2018-07-06T04:19:10.920Z,106.90
2018-07-06T04:20:10.832Z,106.50
2018-07-06T04:21:10.852Z,107.50
2018-07-06T04:22:10.859Z,107.80
2018-07-06T04:23:10.859Z,108.10
2018-07-06T04:24:10.927Z,101.90
2018-07-06T04:25:10.869Z,112.00
2018-07-06T04:26:10.999Z,110.00
2018-07-06T04:27:10.926Z,96.00
2018-07-06T04:28:10.919Z,108.40
2018-07-06T04:29:10.930Z,111.60
2018-07-06T04:30:10.958Z,113.90
2018-07-06T04:31:11.106Z,119.20
2018-07-06T04:32:10.958Z,126.50
2018-07-06T04:33:10.968Z,122.90
2018-07-06T04:34:10.990Z,121.90
2018-07-06T04:35:10.997Z,116.80
2018-07-06T04:36:11.074Z,113.60
2018-07-06T04:37:11.045Z,114.10
2018-07-06T04:38:11.055Z,107.90
2018-07-06T04:39:11.047Z,109.80
2018-07-06T04:40:11.176Z,104.50
2018-07-06T04:41:11.084Z,109.40
2018-07-06T04:42:11.100Z,117.40
2018-07-06T04:43:11.104Z,112.00
2018-07-06T04:44:11.172Z,112.10
2018-07-06T04:45:11.225Z,101.40
2018-07-06T04:46:11.145Z,102.40
2018-07-06T04:47:11.161Z,103.40
2018-07-06T04:48:11.172Z,105.90
2018-07-06T04:49:11.170Z,103.50
2018-07-06T04:50:11.338Z,102.40
2018-07-06T04:51:11.201Z,101.60
2018-07-06T04:52:11.202Z,107.60
2018-07-06T04:53:11.245Z,108.60
2018-07-06T04:54:11.247Z,114.50
2018-07-06T04:55:11.456Z,115.70
2018-07-06T04:56:11.288Z,109.80
2018-07-06T04:57:11.271Z,107.50
2018-07-06T04:58:11.303Z,109.00
2018-07-06T04:59:11.293Z,108.90
2018-07-06T05:00:11.453Z,109.00
2018-07-06T05:01:11.318Z,111.50
2018-07-06T05:02:11.343Z,112.40
2018-07-06T05:03:11.339Z,114.00
2018-07-06T05:04:11.357Z,111.50
2018-07-06T05:05:11.380Z,104.40
2018-07-06T05:06:11.493Z,104.10
2018-07-06T05:07:11.392Z,107.50
2018-07-06T05:08:11.460Z,116.20
2018-07-06T05:09:11.439Z,111.20
2018-07-06T05:10:11.428Z,115.10
2018-07-06T05:11:11.497Z,105.80
2018-07-06T05:12:11.553Z,112.30
2018-07-06T05:13:11.463Z,119.60
2018-07-06T05:14:11.495Z,123.00
2018-07-06T05:15:11.512Z,122.30
2018-07-06T05:16:11.561Z,119.80
2018-07-06T05:17:11.690Z,121.00
2018-07-06T05:18:11.526Z,122.10
2018-07-06T05:19:11.574Z,123.00
2018-07-06T05:20:11.570Z,129.00
2018-07-06T05:21:11.558Z,122.80
2018-07-06T05:22:11.573Z,110.60
2018-07-06T05:23:11.698Z,117.20
2018-07-06T05:24:11.607Z,112.60
2018-07-06T05:25:11.611Z,114.30
2018-07-06T05:26:11.648Z,116.80
2018-07-06T05:27:11.658Z,109.90
2018-07-06T05:28:11.755Z,115.30
2018-07-06T05:29:11.680Z,112.00
2018-07-06T05:30:11.682Z,109.30
2018-07-06T05:31:11.694Z,106.10
2018-07-06T05:32:11.697Z,115.10
2018-07-06T05:33:11.726Z,115.60
2018-07-06T05:34:11.834Z,120.70
2018-07-06T05:35:11.744Z,115.50
2018-07-06T05:36:11.750Z,110.90
2018-07-06T05:37:11.761Z,107.40
2018-07-06T05:38:11.775Z,107.30
2018-07-06T05:39:11.887Z,110.70
2018-07-06T05:40:11.806Z,109.70
2018-07-06T05:41:11.816Z,120.00
2018-07-06T05:42:11.822Z,125.60
2018-07-06T05:43:11.850Z,119.00
2018-07-06T05:44:11.843Z,127.60
2018-07-06T05:45:11.959Z,133.30
2018-07-06T05:46:11.862Z,127.10
2018-07-06T05:47:11.890Z,122.50
2018-07-06T05:48:11.907Z,124.10
2018-07-06T05:49:11.897Z,118.50
2018-07-06T05:50:11.921Z,120.30
2018-07-06T05:51:12.043Z,123.30
2018-07-06T05:52:11.943Z,121.80
2018-07-06T05:53:11.965Z,115.60
2018-07-06T05:54:11.983Z,113.90
2018-07-06T05:55:12.005Z,117.70
2018-07-06T05:56:12.082Z,124.70
2018-07-06T05:57:12.007Z,122.20
2018-07-06T05:58:12.029Z,125.70
2018-07-06T05:59:12.062Z,115.70
2018-07-06T06:00:12.057Z,113.20
2018-07-06T06:01:12.153Z,116.40
2018-07-06T06:02:12.079Z,117.90
2018-07-06T06:03:12.098Z,112.80
2018-07-06T06:04:12.084Z,110.80
2018-07-06T06:05:12.089Z,114.20
2018-07-06T06:06:12.230Z,110.90
2018-07-06T06:07:12.142Z,119.10
2018-07-06T06:08:12.159Z,117.00
2018-07-06T06:09:12.159Z,119.30
2018-07-06T06:10:12.157Z,113.60
2018-07-06T06:11:12.213Z,118.10
2018-07-06T06:12:12.208Z,123.90
2018-07-06T06:13:12.202Z,122.30
2018-07-06T06:14:12.218Z,120.20
2018-07-06T06:15:12.240Z,111.40
2018-07-06T06:16:12.341Z,114.70
2018-07-06T06:17:12.248Z,114.00
2018-07-06T06:18:12.251Z,111.70
2018-07-06T06:19:12.297Z,123.30
2018-07-06T06:20:12.298Z,126.40
2018-07-06T06:21:12.401Z,118.20
2018-07-06T06:22:12.313Z,114.90
2018-07-06T06:23:12.323Z,113.20
2018-07-06T06:24:12.348Z,111.90
2018-07-06T06:25:12.352Z,119.40
2018-07-06T06:26:12.471Z,122.40
2018-07-06T06:27:12.361Z,119.70
2018-07-06T06:28:12.393Z,115.50
2018-07-06T06:29:12.391Z,114.60
2018-07-06T06:30:12.389Z,122.10
2018-07-06T06:31:12.508Z,126.60
2018-07-06T06:32:12.437Z,124.70
2018-07-06T06:33:12.504Z,124.40
2018-07-06T06:34:12.572Z,118.90
2018-07-06T06:35:12.466Z,121.20
2018-07-06T06:36:12.590Z,120.50
2018-07-06T06:37:12.479Z,122.00
2018-07-06T06:38:12.513Z,119.20
2018-07-06T06:39:12.517Z,121.40
2018-07-06T06:40:12.532Z,124.80
2018-07-06T06:41:12.601Z,119.20
2018-07-06T06:42:12.539Z,128.90
2018-07-06T06:43:12.567Z,127.10
2018-07-06T06:44:12.587Z,124.10
2018-07-06T06:45:12.589Z,121.90
2018-07-06T06:46:12.707Z,118.40
2018-07-06T06:47:12.610Z,120.60
2018-07-06T06:48:12.634Z,124.80
2018-07-06T06:49:12.637Z,119.90
2018-07-06T06:50:12.643Z,112.00
2018-07-06T06:51:12.713Z,115.60
2018-07-06T06:52:12.766Z,126.90
2018-07-06T06:53:12.687Z,121.40
2018-07-06T06:54:12.700Z,115.20
2018-07-06T06:55:12.697Z,115.00
2018-07-06T06:56:12.704Z,122.00
2018-07-06T06:57:12.728Z,124.40
2018-07-06T06:58:12.831Z,119.30
2018-07-06T06:59:12.763Z,123.90
2018-07-06T07:00:12.766Z,117.20
2018-07-06T07:01:12.786Z,116.90
2018-07-06T07:02:12.795Z,113.80
2018-07-06T07:03:12.899Z,114.40
2018-07-06T07:04:12.819Z,110.30
2018-07-06T07:05:12.943Z,115.10
2018-07-06T07:06:12.841Z,121.10
2018-07-06T07:07:12.854Z,112.40
2018-07-06T07:08:12.951Z,113.30
2018-07-06T07:09:12.859Z,116.70
2018-07-06T07:10:12.890Z,111.80
2018-07-06T07:11:12.906Z,116.30
2018-07-06T07:12:12.908Z,107.20
2018-07-06T07:13:13.439Z,118.50
2018-07-06T07:14:13.074Z,125.30
2018-07-06T07:15:12.942Z,124.00
2018-07-06T07:16:12.947Z,127.10
2018-07-06T07:17:12.981Z,125.20
2018-07-06T07:18:13.071Z,115.00
2018-07-06T07:19:12.990Z,122.50
2018-07-06T07:20:13.044Z,121.10
2018-07-06T07:21:13.027Z,119.30
2018-07-06T07:22:13.035Z,118.70
2018-07-06T07:23:13.128Z,125.80
2018-07-06T07:24:13.054Z,124.70
2018-07-06T07:25:13.060Z,130.20
2018-07-06T07:26:13.069Z,133.90
2018-07-06T07:27:13.078Z,138.90
2018-07-06T07:28:13.200Z,132.90
2018-07-06T07:29:13.101Z,128.20
2018-07-06T07:30:13.151Z,130.30
2018-07-06T07:31:13.141Z,129.00
2018-07-06T07:32:13.156Z,128.90
2018-07-06T07:33:13.266Z,129.20
2018-07-06T07:34:13.180Z,133.60
2018-07-06T07:35:13.195Z,131.90
2018-07-06T07:36:13.201Z,138.10
2018-07-06T07:37:13.204Z,131.30
2018-07-06T07:38:13.279Z,124.90
2018-07-06T07:39:13.234Z,134.30
2018-07-06T07:40:13.239Z,145.70
2018-07-06T07:41:13.247Z,149.80
2018-07-06T07:42:13.358Z,158.90
2018-07-06T07:43:13.298Z,164.00
2018-07-06T07:44:13.300Z,160.60
2018-07-06T07:45:13.307Z,159.00
2018-07-06T07:46:13.331Z,155.60
2018-07-06T07:47:13.441Z,145.00
2018-07-06T07:48:13.339Z,151.50
2018-07-06T07:49:13.349Z,153.70
2018-07-06T07:50:13.363Z,145.40
2018-07-06T07:51:13.381Z,158.60
2018-07-06T07:52:13.506Z,163.90
2018-07-06T07:53:13.397Z,158.70
2018-07-06T07:54:13.422Z,159.60
2018-07-06T07:55:13.444Z,166.80
2018-07-06T07:56:13.439Z,165.50
2018-07-06T07:57:13.567Z,159.60
2018-07-06T07:58:13.454Z,163.40
2018-07-06T07:59:13.471Z,157.40
2018-07-06T08:00:13.485Z,160.90
2018-07-06T08:01:13.543Z,152.70
2018-07-06T08:02:13.623Z,156.70
2018-07-06T08:03:13.527Z,157.10
2018-07-06T08:04:13.541Z,152.90
2018-07-06T08:05:13.561Z,158.90
2018-07-06T08:06:13.561Z,152.40
2018-07-06T08:07:13.764Z,149.70
2018-07-06T08:08:13.599Z,154.60
2018-07-06T08:09:13.609Z,161.00
2018-07-06T08:10:13.621Z,159.50
2018-07-06T08:11:13.625Z,165.90
2018-07-06T08:12:13.737Z,171.90
2018-07-06T08:13:13.651Z,163.70
2018-07-06T08:14:13.649Z,162.80
2018-07-06T08:15:13.676Z,168.10
2018-07-06T08:16:13.687Z,154.70
2018-07-06T08:17:13.801Z,152.80
2018-07-06T08:18:13.757Z,151.00
2018-07-06T08:19:13.715Z,152.80
2018-07-06T08:20:13.726Z,152.00
2018-07-06T08:21:13.746Z,150.70
2018-07-06T08:22:13.867Z,146.30
2018-07-06T08:23:13.758Z,147.20
2018-07-06T08:24:13.781Z,151.10
2018-07-06T08:25:13.787Z,162.40
2018-07-06T08:26:13.809Z,170.50
2018-07-06T08:27:13.808Z,168.70
2018-07-06T08:28:13.937Z,149.40
2018-07-06T08:29:13.836Z,153.90
2018-07-06T08:30:13.899Z,158.10
2018-07-06T08:31:13.854Z,152.50
2018-07-06T08:32:13.867Z,142.40
2018-07-06T08:33:14.052Z,145.70
2018-07-06T08:34:13.904Z,145.50
2018-07-06T08:35:13.933Z,131.70
2018-07-06T08:36:13.920Z,146.30
2018-07-06T08:37:13.950Z,135.40
2018-07-06T08:38:14.056Z,138.70
2018-07-06T08:39:13.965Z,154.50
2018-07-06T08:40:13.980Z,182.90
2018-07-06T08:41:13.985Z,164.10
2018-07-06T08:42:13.988Z,175.30
2018-07-06T08:43:14.150Z,290.80
2018-07-06T08:44:14.032Z,376.20
2018-07-06T08:45:14.046Z,354.20
2018-07-06T08:46:14.029Z,253.90
2018-07-06T08:47:14.062Z,242.50
2018-07-06T08:48:14.233Z,362.40
2018-07-06T08:49:14.071Z,296.90
2018-07-06T08:50:14.135Z,307.30
2018-07-06T08:51:14.111Z,243.30
2018-07-06T08:52:14.116Z,245.70
2018-07-06T08:53:14.275Z,258.00
2018-07-06T08:54:14.139Z,298.30
2018-07-06T08:55:14.161Z,283.40
2018-07-06T08:56:14.149Z,293.70
2018-07-06T08:57:14.169Z,332.70
2018-07-06T08:58:14.349Z,363.80
2018-07-06T08:59:14.190Z,365.00
2018-07-06T09:00:14.215Z,377.60
2018-07-06T09:01:14.206Z,341.90
2018-07-06T09:02:14.224Z,306.70
2018-07-06T09:03:14.336Z,271.30
2018-07-06T09:04:14.325Z,266.50
2018-07-06T09:05:14.284Z,300.30
2018-07-06T09:06:14.285Z,315.30
2018-07-06T09:07:14.293Z,339.80
2018-07-06T09:08:14.406Z,339.60
2018-07-06T09:09:14.419Z,351.80
2018-07-06T09:10:14.335Z,374.20
2018-07-06T09:11:14.338Z,406.20
2018-07-06T09:12:14.352Z,382.50
2018-07-06T09:13:14.454Z,294.60
2018-07-06T09:14:14.370Z,277.40
2018-07-06T09:15:14.386Z,242.50
2018-07-06T09:16:14.463Z,197.60
2018-07-06T09:17:14.415Z,208.80
2018-07-06T09:18:14.423Z,231.80
2018-07-06T09:19:14.589Z,282.00
2018-07-06T09:20:14.527Z,270.90
2018-07-06T09:21:14.470Z,271.40
2018-07-06T09:22:14.481Z,260.70
2018-07-06T09:23:14.478Z,234.80
2018-07-06T09:24:14.610Z,234.40
2018-07-06T09:25:14.590Z,237.70
2018-07-06T09:26:14.599Z,225.00
2018-07-06T09:27:14.537Z,223.70
2018-07-06T09:28:14.525Z,184.40
2018-07-06T09:29:14.545Z,190.10
2018-07-06T09:30:14.704Z,225.20
2018-07-06T09:31:14.562Z,254.80
2018-07-06T09:32:14.595Z,250.70
2018-07-06T09:33:14.588Z,238.10
2018-07-06T09:34:14.611Z,259.50
2018-07-06T09:35:14.717Z,232.30
2018-07-06T09:36:14.641Z,220.10
2018-07-06T09:37:14.646Z,202.40
2018-07-06T09:38:14.643Z,195.70
2018-07-06T09:39:14.660Z,210.80
2018-07-06T09:40:14.670Z,200.20
2018-07-06T09:41:14.806Z,204.20
2018-07-06T09:42:14.710Z,220.40
2018-07-06T09:43:14.724Z,206.60
2018-07-06T09:44:14.733Z,221.60
2018-07-06T09:45:14.744Z,237.40
2018-07-06T09:46:14.842Z,223.10
2018-07-06T09:47:14.775Z,208.60
2018-07-06T09:48:14.768Z,178.60
2018-07-06T09:49:14.795Z,168.30
2018-07-06T09:50:14.811Z,172.90
2018-07-06T09:51:14.959Z,183.20
2018-07-06T09:52:14.821Z,167.70
2018-07-06T09:53:14.825Z,172.10
2018-07-06T09:54:14.851Z,168.70
2018-07-06T09:55:14.864Z,170.00
2018-07-06T09:56:15.026Z,179.60
2018-07-06T09:57:14.892Z,180.10
2018-07-06T09:58:14.885Z,194.70
2018-07-06T09:59:14.895Z,206.80
2018-07-06T10:00:14.904Z,198.90
2018-07-06T10:01:15.097Z,187.50
2018-07-06T10:02:14.950Z,183.80
2018-07-06T10:03:14.949Z,163.60
2018-07-06T10:04:15.007Z,167.20
2018-07-06T10:05:14.974Z,172.00
2018-07-06T10:06:15.075Z,170.90
2018-07-06T10:07:15.012Z,165.00
2018-07-06T10:08:15.003Z,160.90
2018-07-06T10:09:15.029Z,165.10
2018-07-06T10:10:15.092Z,160.90
2018-07-06T10:11:15.147Z,164.60
2018-07-06T10:12:15.074Z,161.40
2018-07-06T10:13:15.077Z,159.10
2018-07-06T10:14:15.098Z,156.30
2018-07-06T10:15:15.103Z,155.90
2018-07-06T10:16:15.276Z,153.50
2018-07-06T10:17:15.123Z,152.50
2018-07-06T10:18:15.133Z,143.60
2018-07-06T10:19:15.149Z,143.50
2018-07-06T10:20:15.158Z,141.20
2018-07-06T10:21:15.328Z,139.80
2018-07-06T10:22:15.189Z,138.30
2018-07-06T10:23:15.196Z,141.10
2018-07-06T10:24:15.214Z,144.10
2018-07-06T10:25:15.214Z,144.30
2018-07-06T10:26:15.297Z,137.70
2018-07-06T10:27:15.278Z,137.00
2018-07-06T10:28:15.263Z,129.50
2018-07-06T10:29:15.284Z,129.60
2018-07-06T10:30:15.298Z,125.90
2018-07-06T10:31:15.459Z,121.30
2018-07-06T10:32:15.305Z,117.60
2018-07-06T10:33:15.365Z,116.50
2018-07-06T10:34:15.322Z,112.10
2018-07-06T10:35:15.355Z,112.80
2018-07-06T10:36:15.467Z,117.10
2018-07-06T10:37:15.361Z,116.50
2018-07-06T10:38:15.393Z,114.00
2018-07-06T10:39:15.405Z,110.70
2018-07-06T10:40:15.414Z,106.70
2018-07-06T10:41:15.518Z,104.30
2018-07-06T10:42:15.465Z,104.10
2018-07-06T10:43:15.457Z,104.90
2018-07-06T10:44:15.474Z,100.40
2018-07-06T10:45:15.468Z,88.80
2018-07-06T10:46:15.483Z,90.30
2018-07-06T10:47:15.657Z,84.20
2018-07-06T10:48:15.523Z,86.00
2018-07-06T10:49:15.528Z,89.40
2018-07-06T10:50:15.547Z,88.40
2018-07-06T10:51:15.561Z,91.40
2018-07-06T10:52:15.668Z,94.20
2018-07-06T10:53:15.595Z,88.50
2018-07-06T10:54:15.590Z,86.90
2018-07-06T10:55:15.616Z,85.80
2018-07-06T10:56:15.611Z,84.90
2018-07-06T10:57:15.732Z,85.00
2018-07-06T10:58:15.657Z,80.60
2018-07-06T10:59:15.682Z,76.70
2018-07-06T11:00:15.683Z,77.90
2018-07-06T11:01:15.696Z,76.80
2018-07-06T11:02:15.880Z,78.80
2018-07-06T11:03:15.719Z,78.00
2018-07-06T11:04:15.763Z,78.80
2018-07-06T11:05:15.755Z,80.70
2018-07-06T11:06:15.765Z,76.60
2018-07-06T11:07:15.884Z,80.20
2018-07-06T11:08:15.789Z,78.20
2018-07-06T11:09:15.810Z,75.80
2018-07-06T11:10:15.819Z,74.50
2018-07-06T11:11:15.819Z,76.90
2018-07-06T11:12:16.001Z,73.20
2018-07-06T11:13:15.854Z,75.40
2018-07-06T11:14:15.888Z,73.70
2018-07-06T11:15:15.915Z,76.50
2018-07-06T11:16:16.026Z,76.90
2018-07-06T11:17:16.019Z,75.60
2018-07-06T11:18:15.921Z,73.50
2018-07-06T11:19:15.950Z,72.40
2018-07-06T11:20:15.972Z,78.90
2018-07-06T11:21:15.976Z,75.10
2018-07-06T11:22:16.091Z,74.70
2018-07-06T11:23:16.020Z,75.20
2018-07-06T11:24:16.015Z,73.50
2018-07-06T11:25:16.059Z,73.80
2018-07-06T11:26:16.060Z,74.70
2018-07-06T11:27:16.180Z,72.70
2018-07-06T11:28:16.095Z,72.90
2018-07-06T11:29:16.088Z,70.50
2018-07-06T11:30:16.115Z,70.40
2018-07-06T11:31:16.115Z,69.30
2018-07-06T11:32:16.339Z,69.50
2018-07-06T11:33:16.173Z,69.60
2018-07-06T11:34:16.164Z,69.60
2018-07-06T11:35:16.187Z,68.10
2018-07-06T11:36:16.197Z,71.20
2018-07-06T11:37:16.361Z,69.00
2018-07-06T11:38:16.417Z,68.60
2018-07-06T11:39:16.249Z,68.00
2018-07-06T11:40:16.275Z,66.20
2018-07-06T11:41:16.276Z,66.10
2018-07-06T11:42:16.397Z,67.00
2018-07-06T11:43:16.318Z,66.60
2018-07-06T11:44:16.327Z,65.70
2018-07-06T11:45:16.421Z,64.20
2018-07-06T11:46:16.375Z,67.90
2018-07-06T11:47:16.376Z,65.90
2018-07-06T11:48:16.508Z,64.50
2018-07-06T11:49:16.400Z,66.20
2018-07-06T11:50:16.470Z,63.40
2018-07-06T11:51:16.453Z,66.60
2018-07-06T11:52:16.458Z,65.20
2018-07-06T11:53:16.589Z,66.10
2018-07-06T11:54:16.490Z,65.10
2018-07-06T11:55:16.514Z,67.10
2018-07-06T11:56:16.512Z,62.90
2018-07-06T11:57:16.549Z,64.60
2018-07-06T11:58:16.690Z,61.90
2018-07-06T11:59:16.576Z,63.60
2018-07-06T12:00:16.578Z,62.70
2018-07-06T12:01:16.620Z,62.40
2018-07-06T12:02:16.621Z,62.00
2018-07-06T12:03:16.741Z,60.70
2018-07-06T12:04:16.780Z,62.60
2018-07-06T12:05:16.684Z,62.20
2018-07-06T12:06:16.706Z,64.20
2018-07-06T12:07:16.703Z,63.70
2018-07-06T12:08:16.837Z,63.30
2018-07-06T12:09:16.748Z,61.20
2018-07-06T12:10:16.760Z,60.60
2018-07-06T12:11:16.783Z,61.70
2018-07-06T12:12:16.784Z,61.60
2018-07-06T12:13:16.919Z,62.20
2018-07-06T12:14:16.838Z,63.60
2018-07-06T12:15:16.843Z,62.90
2018-07-06T12:16:16.871Z,66.70
2018-07-06T12:17:16.884Z,63.40
2018-07-06T12:18:17.049Z,66.40
2018-07-06T12:19:16.926Z,61.50
2018-07-06T12:20:16.931Z,60.50
2018-07-06T12:21:17.000Z,62.40
2018-07-06T12:22:16.976Z,60.90
2018-07-06T12:23:17.098Z,63.30
2018-07-06T12:24:16.991Z,63.20
2018-07-06T12:25:17.016Z,62.20
2018-07-06T12:26:17.026Z,63.90
2018-07-06T12:27:17.049Z,61.40
2018-07-06T12:28:17.173Z,63.70
2018-07-06T12:29:17.178Z,66.50
2018-07-06T12:30:17.109Z,61.60
2018-07-06T12:31:17.143Z,60.10
2018-07-06T12:32:17.158Z,63.40
2018-07-06T12:33:17.385Z,61.60
2018-07-06T12:34:17.189Z,63.90
2018-07-06T12:35:17.205Z,61.80
2018-07-06T12:36:17.248Z,60.80
2018-07-06T12:37:17.223Z,59.50